Terminal Aerodrome Forecast
Issued by NWS

Home | Current Version | Previous Version | Graphics & Text | Print | Product List | Glossary On
Versions: 1 2 3 4 5 6 7 8 9 10 11 12 13
000
FTUS43 KICT 270520
TAFSLN
TAF
KSLN 270520Z 2706/2806 15008KT P6SM SCT250
     FM271600 18017G26KT P6SM SCT150
     FM280100 17014KT P6SM BKN120=

USA.gov is the U.S. government's official web portal to all federal, state and local government web resources and services.